Time;durP1;ratioP1;P1;durP2;ratioP2;P2;SDS_P1;SDS_P2;PMS_P1;PMS_P2;Temp;Humidity;BMP_temperature;BMP_pressure;BME280_temperature;BME280_humidity;BME280_pressure;Samples;Min_cycle;Max_cycle;Signal;HPM_P1;HPM_P2
2020/12/30 00:00:39;;;;;;;37.83;27.98;;;;;;;4.85;70.01;99128.78;4983564;28;97689;-70
2020/12/30 00:03:05;;;;;;;43.72;31.65;;;;;;;4.75;70.39;99124.91;4984217;28;98432;-70
2020/12/30 00:05:31;;;;;;;38.17;27.27;;;;;;;4.71;70.33;99118.22;4984545;28;98751;-70
2020/12/30 00:07:58;;;;;;;41.17;29.65;;;;;;;4.67;71.06;99108.91;4984334;28;98689;-70
2020/12/30 00:10:24;;;;;;;40.55;31.42;;;;;;;4.84;69.83;99110.75;4984863;28;97352;-70
2020/12/30 00:12:50;;;;;;;44.65;28.85;;;;;;;4.87;69.50;99106.28;4983649;28;98687;-69
2020/12/30 00:15:18;;;;;;;42.88;30.58;;;;;;;4.86;69.55;99108.94;4983462;28;98521;-70
2020/12/30 00:17:44;;;;;;;37.47;29.25;;;;;;;4.86;69.36;99112.38;4983899;28;99342;-69
2020/12/30 00:20:13;;;;;;;41.90;32.17;;;;;;;4.90;68.79;99106.16;4984184;28;97063;-70
2020/12/30 00:22:41;;;;;;;44.22;30.63;;;;;;;4.83;69.21;99111.66;4982803;28;98540;-69
2020/12/30 00:25:07;;;;;;;42.15;29.42;;;;;;;4.72;69.69;99110.38;4983737;28;98676;-70
2020/12/30 00:27:34;;;;;;;38.90;28.05;;;;;;;4.90;68.58;99116.50;4983690;28;97921;-69
2020/12/30 00:30:00;;;;;;;41.13;30.10;;;;;;;4.84;69.38;99121.91;4984079;28;98324;-69
2020/12/30 00:32:27;;;;;;;41.28;29.65;;;;;;;4.90;68.28;99118.22;4983424;28;98511;-70
2020/12/30 00:34:53;;;;;;;41.88;30.65;;;;;;;4.76;69.33;99118.00;4981759;28;98590;-70
2020/12/30 00:37:19;;;;;;;46.35;32.72;;;;;;;4.73;69.25;99114.63;4984472;28;97286;-70
2020/12/30 00:39:46;;;;;;;43.72;31.52;;;;;;;4.87;69.34;99115.78;4985325;28;97152;-70
2020/12/30 00:42:12;;;;;;;42.30;30.05;;;;;;;4.81;68.92;99121.22;4984432;28;99068;-69
2020/12/30 00:44:38;;;;;;;46.80;30.63;;;;;;;4.86;69.43;99119.28;4983239;28;98523;-69
2020/12/30 00:47:05;;;;;;;42.90;30.98;;;;;;;4.82;69.48;99128.06;4983112;28;97386;-70
2020/12/30 00:49:31;;;;;;;40.90;28.20;;;;;;;4.87;69.45;99119.19;4983563;28;99224;-70
2020/12/30 00:51:58;;;;;;;40.85;31.63;;;;;;;4.93;69.02;99120.66;4984431;28;97795;-69
2020/12/30 00:54:33;;;;;;;46.40;30.48;;;;;;;4.89;69.19;99119.97;4965392;28;100350;-70
2020/12/30 00:56:59;;;;;;;43.47;29.02;;;;;;;5.00;68.50;99129.81;4966426;28;96938;-70
2020/12/30 00:59:29;;;;;;;43.33;31.60;;;;;;;5.00;68.79;99128.06;4966562;28;97509;-70
2020/12/30 01:01:57;;;;;;;41.45;29.52;;;;;;;4.97;68.45;99133.38;4981398;28;97568;-70
2020/12/30 01:04:44;;;;;;;44.13;32.40;;;;;;;4.89;69.14;99139.78;4982938;28;98296;-71
2020/12/30 01:07:11;;;;;;;44.22;33.30;;;;;;;4.84;69.22;99141.72;4983624;28;96572;-71
2020/12/30 01:09:37;;;;;;;42.92;30.77;;;;;;;4.83;69.47;99140.06;4984028;28;97802;-71
2020/12/30 01:12:04;;;;;;;43.65;29.60;;;;;;;4.85;69.59;99148.59;4965408;28;98635;-70
2020/12/30 01:14:31;;;;;;;47.33;33.25;;;;;;;4.89;69.31;99156.13;4984409;28;98936;-70
2020/12/30 01:16:58;;;;;;;43.42;29.30;;;;;;;4.95;69.31;99157.59;4984147;28;96830;-70
2020/12/30 01:19:24;;;;;;;42.17;30.20;;;;;;;5.07;68.89;99162.22;4983642;28;96819;-70
2020/12/30 01:21:51;;;;;;;46.85;29.50;;;;;;;4.88;69.86;99174.25;4983144;28;98297;-71
2020/12/30 01:24:17;;;;;;;40.97;29.95;;;;;;;4.99;69.57;99161.72;4983282;28;98987;-69
2020/12/30 01:26:44;;;;;;;46.85;31.33;;;;;;;4.96;69.53;99151.53;4965830;28;97980;-69
2020/12/30 01:29:11;;;;;;;42.58;31.35;;;;;;;4.88;70.06;99166.50;4982929;28;96760;-69
2020/12/30 01:31:37;;;;;;;43.13;31.77;;;;;;;4.88;69.83;99174.25;4984719;28;98444;-70
2020/12/30 01:34:04;;;;;;;42.13;31.27;;;;;;;4.82;70.13;99175.38;4986110;28;98506;-71
2020/12/30 01:36:31;;;;;;;45.95;32.25;;;;;;;4.85;70.19;99174.41;4984964;28;96920;-70
2020/12/30 01:38:57;;;;;;;47.83;32.35;;;;;;;4.91;69.98;99181.88;4986569;28;99103;-71
2020/12/30 01:41:24;;;;;;;40.42;30.67;;;;;;;4.91;70.22;99179.31;4985935;28;98458;-71
2020/12/30 01:44:03;;;;;;;38.20;25.50;;;;;;;5.00;69.96;99166.81;4985745;28;99024;-71
2020/12/30 01:46:43;;;;;;;43.95;30.75;;;;;;;5.01;69.86;99172.84;4985303;28;97732;-70
2020/12/30 01:49:27;;;;;;;37.95;29.85;;;;;;;5.09;69.15;99177.66;4987049;28;97587;-69
2020/12/30 01:51:53;;;;;;;39.50;26.85;;;;;;;5.04;69.34;99166.69;4984985;28;99121;-71
2020/12/30 01:54:20;;;;;;;37.15;26.30;;;;;;;5.01;69.35;99178.00;4986398;28;98579;-70
2020/12/30 01:56:47;;;;;;;41.97;26.63;;;;;;;5.07;69.33;99172.56;4986130;28;96711;-70
2020/12/30 01:59:15;;;;;;;39.90;28.75;;;;;;;5.02;69.77;99169.34;4986299;28;97634;-69
2020/12/30 02:01:43;;;;;;;42.45;27.98;;;;;;;4.99;69.53;99165.13;4985645;28;99587;-70
2020/12/30 02:04:12;;;;;;;38.45;25.65;;;;;;;4.92;69.90;99186.16;4985376;28;98585;-70
2020/12/30 02:06:39;;;;;;;37.60;26.73;;;;;;;4.99;69.55;99178.03;4985674;28;98184;-70
2020/12/30 02:09:05;;;;;;;42.25;27.67;;;;;;;5.12;69.07;99178.34;4986617;28;96715;-71
2020/12/30 02:11:32;;;;;;;48.42;28.45;;;;;;;5.03;69.31;99178.75;4985933;28;98598;-70
2020/12/30 02:14:12;;;;;;;40.45;27.42;;;;;;;4.84;69.71;99176.13;4985654;28;98466;-70
2020/12/30 02:16:56;;;;;;;39.72;28.00;;;;;;;4.89;69.42;99181.09;4983560;28;96742;-70
2020/12/30 02:19:22;;;;;;;38.85;27.45;;;;;;;4.80;70.10;99172.03;4968790;28;98201;-70
2020/12/30 02:21:49;;;;;;;37.83;26.88;;;;;;;4.94;69.65;99174.81;4985649;28;99129;-70
2020/12/30 02:24:36;;;;;;;36.90;26.63;;;;;;;5.06;68.86;99176.06;4967795;28;98617;-70
2020/12/30 02:27:03;;;;;;;35.33;26.85;;;;;;;5.01;69.47;99183.16;4985191;28;97269;-71
2020/12/30 02:29:30;;;;;;;38.28;25.92;;;;;;;4.99;69.14;99184.97;4967864;28;100758;-70
2020/12/30 02:31:57;;;;;;;42.05;28.05;;;;;;;5.03;68.59;99178.75;4985477;28;98489;-70
2020/12/30 02:34:24;;;;;;;38.60;28.27;;;;;;;5.06;68.65;99182.94;4967855;28;98445;-70
2020/12/30 02:36:50;;;;;;;39.08;26.20;;;;;;;4.96;69.17;99178.19;4986979;28;97355;-70
2020/12/30 02:39:17;;;;;;;37.67;26.83;;;;;;;5.06;68.74;99178.63;4986464;28;96951;-71
2020/12/30 02:41:44;;;;;;;44.58;28.92;;;;;;;5.17;68.17;99179.00;4985303;28;98423;-70
2020/12/30 02:44:10;;;;;;;37.58;26.13;;;;;;;5.09;68.42;99177.66;4984258;28;98646;-70
2020/12/30 02:46:36;;;;;;;41.10;30.63;;;;;;;5.15;68.44;99174.78;4984979;28;97225;-70
2020/12/30 02:49:03;;;;;;;37.15;27.40;;;;;;;5.04;68.68;99175.25;4985266;28;97498;-70
2020/12/30 02:51:29;;;;;;;33.03;25.30;;;;;;;4.91;69.01;99179.31;4985236;28;98542;-70
2020/12/30 02:53:55;;;;;;;40.15;27.33;;;;;;;4.93;69.21;99182.66;4984588;28;98423;-71
2020/12/30 02:56:22;;;;;;;39.67;27.70;;;;;;;4.98;68.72;99181.53;4985586;28;99356;-70
2020/12/30 02:58:48;;;;;;;38.33;27.77;;;;;;;4.86;69.80;99179.50;4983907;28;96753;-70
2020/12/30 03:01:15;;;;;;;37.15;28.77;;;;;;;4.68;70.13;99181.13;4985371;28;98444;-70
2020/12/30 03:03:42;;;;;;;35.33;24.05;;;;;;;4.86;69.56;99181.25;4984930;28;99969;-70
2020/12/30 03:06:09;;;;;;;40.55;28.10;;;;;;;4.91;69.15;99167.22;4984825;28;96622;-71
2020/12/30 03:08:36;;;;;;;36.70;26.45;;;;;;;4.95;69.19;99166.19;4986446;28;97775;-71
2020/12/30 03:11:03;;;;;;;36.10;24.35;;;;;;;4.97;69.60;99163.53;4984453;28;97935;-71
2020/12/30 03:13:30;;;;;;;38.97;26.48;;;;;;;4.89;69.86;99181.09;4984890;28;97695;-71
2020/12/30 03:15:56;;;;;;;36.45;25.65;;;;;;;5.02;69.02;99160.75;4984189;28;98295;-71
2020/12/30 03:18:22;;;;;;;36.40;24.52;;;;;;;5.11;68.38;99156.00;4985160;28;96752;-71
2020/12/30 03:20:49;;;;;;;34.50;22.80;;;;;;;5.13;68.44;99146.44;4985647;28;98637;-71
2020/12/30 03:23:15;;;;;;;35.50;26.27;;;;;;;5.16;68.82;99153.22;4984718;28;98768;-71
2020/12/30 03:25:43;;;;;;;40.67;26.75;;;;;;;5.20;68.41;99158.16;4984831;28;99234;-70
2020/12/30 03:28:09;;;;;;;34.17;24.17;;;;;;;5.14;68.91;99147.28;4984466;28;96847;-71
2020/12/30 03:30:36;;;;;;;35.22;24.27;;;;;;;5.18;69.01;99159.16;4984936;28;98484;-71
2020/12/30 03:33:03;;;;;;;34.65;24.90;;;;;;;5.17;68.98;99149.75;4984812;28;98670;-70
2020/12/30 03:35:29;;;;;;;40.67;26.33;;;;;;;5.16;68.77;99145.44;4984823;28;98771;-70
2020/12/30 03:37:55;;;;;;;34.88;26.10;;;;;;;4.87;71.14;99151.94;4981845;28;97063;-70
2020/12/30 03:40:22;;;;;;;42.08;26.88;;;;;;;5.04;69.60;99143.44;4984079;28;98741;-69
2020/12/30 03:42:48;;;;;;;42.58;26.10;;;;;;;4.92;70.29;99137.91;4984034;28;98806;-70
2020/12/30 03:45:15;;;;;;;38.85;27.33;;;;;;;4.91;70.13;99138.00;4983631;28;96809;-70
2020/12/30 03:47:41;;;;;;;33.92;25.17;;;;;;;4.84;70.66;99150.31;4984170;28;98956;-70
2020/12/30 03:50:07;;;;;;;40.28;27.17;;;;;;;5.04;69.87;99149.44;4984308;28;98641;-71
2020/12/30 03:52:34;;;;;;;35.05;25.52;;;;;;;4.96;70.09;99156.69;4984706;28;98566;-71
2020/12/30 03:55:01;;;;;;;38.17;25.08;;;;;;;5.09;69.55;99162.16;4984090;28;100453;-71
2020/12/30 03:57:27;;;;;;;42.50;29.60;;;;;;;4.84;70.58;99177.88;4986183;28;97593;-70
2020/12/30 03:59:53;;;;;;;38.20;25.75;;;;;;;4.91;70.62;99168.97;4983959;28;98561;-69
2020/12/30 04:02:20;;;;;;;38.13;27.30;;;;;;;4.89;70.84;99174.19;4984443;28;100508;-69
2020/12/30 04:04:46;;;;;;;39.65;27.25;;;;;;;5.02;70.08;99166.75;4983070;28;96935;-69
2020/12/30 04:07:12;;;;;;;39.97;24.67;;;;;;;5.11;69.73;99171.50;4984534;28;97722;-69
2020/12/30 04:09:39;;;;;;;34.60;24.67;;;;;;;5.04;69.81;99169.25;4983455;28;97744;-69
2020/12/30 04:12:05;;;;;;;35.22;25.25;;;;;;;5.05;70.03;99160.59;4984389;28;98563;-69
2020/12/30 04:14:31;;;;;;;43.50;27.85;;;;;;;4.94;70.51;99163.66;4981910;28;98240;-69
2020/12/30 04:16:58;;;;;;;39.08;25.55;;;;;;;5.00;70.17;99159.06;4984316;28;98855;-70
2020/12/30 04:19:24;;;;;;;42.67;26.65;;;;;;;5.02;69.93;99153.00;4982757;28;98433;-70
2020/12/30 04:21:50;;;;;;;38.47;27.02;;;;;;;5.08;69.73;99160.47;4984299;28;99227;-70
2020/12/30 04:24:17;;;;;;;32.80;24.15;;;;;;;5.14;69.63;99168.78;4984128;28;96795;-70
2020/12/30 04:26:43;;;;;;;38.58;24.45;;;;;;;5.15;69.34;99174.78;4983667;28;98914;-69
2020/12/30 04:29:09;;;;;;;32.20;23.40;;;;;;;5.04;69.73;99177.84;4983418;28;98691;-70
2020/12/30 04:31:36;;;;;;;34.03;24.42;;;;;;;5.06;68.96;99176.06;4983907;28;98668;-69
2020/12/30 04:34:04;;;;;;;33.25;24.50;;;;;;;5.13;69.05;99180.03;4985378;28;97589;-70
2020/12/30 04:36:31;;;;;;;37.22;26.70;;;;;;;5.02;69.79;99177.09;4984291;28;99147;-70
2020/12/30 04:38:57;;;;;;;35.65;24.60;;;;;;;5.05;69.49;99170.94;4986449;28;100863;-70
2020/12/30 04:41:33;;;;;;;29.90;21.73;;;;;;;5.15;68.68;99178.19;4988418;28;98497;-70
2020/12/30 04:44:00;;;;;;;32.33;22.40;;;;;;;5.13;68.73;99179.19;4992820;28;96533;-70
2020/12/30 04:46:27;;;;;;;35.08;22.80;;;;;;;5.15;68.68;99173.03;4990306;28;96616;-70
2020/12/30 04:48:53;;;;;;;36.00;23.70;;;;;;;4.85;70.04;99170.09;4990235;28;98501;-70
2020/12/30 04:51:19;;;;;;;34.13;24.25;;;;;;;4.77;70.56;99176.47;4956795;28;98499;-70
2020/12/30 04:53:47;;;;;;;34.63;25.23;;;;;;;4.96;69.26;99173.03;4988153;28;96712;-70
2020/12/30 04:56:13;;;;;;;31.33;22.80;;;;;;;4.86;69.51;99160.59;4972439;28;96596;-70
2020/12/30 04:58:39;;;;;;;34.53;25.65;;;;;;;4.78;69.51;99178.97;4956150;28;98466;-70
2020/12/30 05:01:06;;;;;;;32.55;21.13;;;;;;;5.01;68.56;99178.00;4973339;28;97629;-70
2020/12/30 05:03:32;;;;;;;33.75;22.73;;;;;;;4.87;69.31;99182.91;4990079;28;96603;-70
2020/12/30 05:06:04;;;;;;;34.30;25.23;;;;;;;4.81;69.58;99180.63;4957061;28;97388;-69
2020/12/30 05:08:32;;;;;;;36.88;25.30;;;;;;;4.70;69.67;99186.22;4994014;28;97527;-70
2020/12/30 05:10:59;;;;;;;34.20;24.05;;;;;;;4.90;69.01;99185.34;4994197;28;98333;-70
2020/12/30 05:13:26;;;;;;;30.15;23.17;;;;;;;4.77;69.22;99176.47;4993630;28;98050;-70
2020/12/30 05:15:52;;;;;;;31.42;23.92;;;;;;;4.83;69.26;99186.53;4993608;28;96608;-71
2020/12/30 05:18:19;;;;;;;33.28;25.60;;;;;;;4.87;68.92;99183.75;4993151;28;98633;-71
2020/12/30 05:20:46;;;;;;;32.10;23.52;;;;;;;4.72;69.46;99190.41;4993110;28;98537;-70
2020/12/30 05:23:12;;;;;;;29.42;22.70;;;;;;;4.80;69.24;99194.44;4993580;28;96523;-71
2020/12/30 05:25:43;;;;;;;30.95;22.02;;;;;;;4.42;70.36;99204.59;4988604;28;97251;-71
2020/12/30 05:28:14;;;;;;;29.40;21.05;;;;;;;4.58;70.14;99209.97;4986320;28;98602;-71
2020/12/30 05:30:43;;;;;;;31.50;23.55;;;;;;;4.64;69.60;99217.47;4985938;28;98770;-71
2020/12/30 05:33:09;;;;;;;32.30;21.83;;;;;;;4.53;70.18;99210.19;4985059;28;97328;-72
2020/12/30 05:35:37;;;;;;;30.55;19.67;;;;;;;4.58;70.41;99212.53;4986553;28;97510;-71
2020/12/30 05:38:03;;;;;;;31.58;20.65;;;;;;;4.82;68.32;99229.59;4986363;28;98709;-71
2020/12/30 05:40:31;;;;;;;26.10;21.27;;;;;;;4.86;67.95;99222.56;4986735;28;98541;-71
2020/12/30 05:43:11;;;;;;;31.92;21.75;;;;;;;4.98;67.46;99237.53;4974376;28;96599;-71
2020/12/30 05:45:48;;;;;;;30.73;20.65;;;;;;;4.97;67.29;99246.19;4992470;28;96636;-71
2020/12/30 05:48:15;;;;;;;26.10;19.25;;;;;;;4.97;66.90;99243.59;4991530;28;98655;-71
2020/12/30 05:50:54;;;;;;;26.42;20.08;;;;;;;4.92;67.48;99240.38;4992053;28;98653;-69
2020/12/30 05:53:21;;;;;;;29.77;21.08;;;;;;;4.73;68.21;99235.97;4992225;28;96980;-69
2020/12/30 05:55:51;;;;;;;32.95;22.17;;;;;;;4.85;68.39;99241.56;4992431;28;96890;-70
2020/12/30 05:58:18;;;;;;;28.38;21.88;;;;;;;4.87;67.91;99242.31;4991655;28;98921;-70
2020/12/30 06:00:44;;;;;;;27.55;19.95;;;;;;;4.84;68.62;99250.19;4993241;28;98646;-69
2020/12/30 06:03:14;;;;;;;31.17;22.83;;;;;;;4.85;68.66;99246.72;4987045;28;97275;-69
2020/12/30 06:05:41;;;;;;;29.55;22.65;;;;;;;4.98;68.12;99247.84;4991991;28;96751;-69
2020/12/30 06:08:07;;;;;;;29.60;20.80;;;;;;;4.99;68.07;99254.69;4991411;28;97592;-70
2020/12/30 06:10:34;;;;;;;28.10;21.75;;;;;;;4.70;69.31;99253.34;4991799;28;98452;-69
2020/12/30 06:13:03;;;;;;;28.83;20.75;;;;;;;4.61;70.26;99254.56;4958490;28;96632;-70
2020/12/30 06:15:31;;;;;;;27.92;19.83;;;;;;;4.78;69.77;99255.59;4991618;28;97338;-70
2020/12/30 06:18:04;;;;;;;25.15;19.95;;;;;;;4.86;69.08;99253.56;4991829;28;98626;-69
2020/12/30 06:20:36;;;;;;;29.13;20.60;;;;;;;4.68;70.39;99253.41;4987673;28;98677;-69
2020/12/30 06:23:10;;;;;;;29.25;21.20;;;;;;;4.71;70.18;99253.28;4992949;28;97027;-69
2020/12/30 06:25:41;;;;;;;30.20;22.43;;;;;;;4.58;71.38;99248.69;4993927;28;96785;-71
2020/12/30 06:28:14;;;;;;;33.13;25.10;;;;;;;4.53;71.33;99253.19;4992328;28;98426;-71
2020/12/30 06:30:48;;;;;;;35.73;24.53;;;;;;;4.79;70.27;99247.78;4990762;28;98600;-71
2020/12/30 06:33:14;;;;;;;30.73;22.38;;;;;;;4.93;69.56;99247.22;4989175;28;97141;-71
2020/12/30 06:35:41;;;;;;;32.10;21.92;;;;;;;4.80;70.76;99253.81;4988832;28;97037;-73
2020/12/30 06:38:27;;;;;;;29.88;21.63;;;;;;;4.83;69.32;99253.66;4990399;28;98832;-75
2020/12/30 06:40:56;;;;;;;31.75;23.00;;;;;;;4.60;71.07;99263.22;4987779;28;98690;-76
2020/12/30 06:43:46;;;;;;;32.53;21.48;;;;;;;4.60;71.30;99270.13;4990559;28;98447;-76
2020/12/30 06:46:36;;;;;;;26.52;22.05;;;;;;;4.75;70.46;99272.09;4987014;28;96982;-75
2020/12/30 06:49:03;;;;;;;29.27;22.27;;;;;;;4.62;71.01;99284.63;4980032;28;98665;-80
2020/12/30 06:51:40;;;;;;;31.90;22.13;;;;;;;4.79;70.72;99283.94;4992211;28;98424;-71
2020/12/30 06:54:07;;;;;;;30.75;20.80;;;;;;;4.83;70.24;99295.81;4984819;28;97058;-72
2020/12/30 06:56:39;;;;;;;32.90;22.25;;;;;;;4.82;70.92;99296.72;4991786;28;96619;-71
2020/12/30 06:59:06;;;;;;;36.15;26.40;;;;;;;4.94;70.43;99303.94;4991578;28;98656;-71
2020/12/30 07:01:55;;;;;;;32.35;24.42;;;;;;;5.00;70.37;99293.38;4992057;28;98455;-71
2020/12/30 07:04:22;;;;;;;31.88;24.65;;;;;;;5.08;70.01;99298.22;4990926;28;96557;-70
2020/12/30 07:06:48;;;;;;;31.20;23.45;;;;;;;4.91;70.77;99298.94;4992219;28;96591;-70
2020/12/30 07:09:15;;;;;;;32.53;22.77;;;;;;;4.77;71.62;99297.81;4991652;28;98463;-72
2020/12/30 07:11:44;;;;;;;30.52;21.60;;;;;;;4.98;70.41;99289.19;4991489;28;98420;-69
2020/12/30 07:14:15;;;;;;;28.00;22.42;;;;;;;5.06;69.90;99297.47;4991437;28;97855;-69
2020/12/30 07:16:48;;;;;;;32.10;23.20;;;;;;;5.08;69.57;99297.38;4992485;28;96747;-74
2020/12/30 07:19:35;;;;;;;30.45;22.30;;;;;;;5.13;69.39;99298.88;4985011;28;98490;-74
2020/12/30 07:22:09;;;;;;;33.10;24.52;;;;;;;5.07;69.66;99309.47;4982175;28;101136;-74
2020/12/30 07:24:45;;;;;;;29.57;21.13;;;;;;;4.94;70.31;99310.88;4990011;28;96810;-73
2020/12/30 07:27:13;;;;;;;27.90;21.63;;;;;;;4.92;71.07;99310.09;4990964;28;96726;-73
2020/12/30 07:29:40;;;;;;;27.15;21.20;;;;;;;4.94;71.75;99324.63;4990456;28;98479;-73
2020/12/30 07:32:07;;;;;;;29.45;22.08;;;;;;;5.08;69.73;99331.81;4990861;28;98437;-73
2020/12/30 07:34:39;;;;;;;30.10;22.00;;;;;;;5.23;69.27;99331.16;4990662;28;96821;-73
2020/12/30 07:37:06;;;;;;;27.20;20.67;;;;;;;5.42;68.52;99340.69;4984431;28;96955;-72
2020/12/30 07:39:40;;;;;;;30.40;21.58;;;;;;;5.37;68.49;99333.13;4990855;28;98648;-73
2020/12/30 07:42:07;;;;;;;33.72;23.38;;;;;;;5.41;67.93;99341.59;4990981;28;98635;-71
2020/12/30 07:44:34;;;;;;;27.55;22.10;;;;;;;5.10;70.25;99342.91;4991253;28;96515;-72
2020/12/30 07:47:04;;;;;;;28.02;21.77;;;;;;;5.23;69.67;99346.66;4989978;28;96783;-72
2020/12/30 07:49:31;;;;;;;31.30;22.02;;;;;;;5.14;70.41;99341.88;4987643;28;97512;-72
2020/12/30 07:52:01;;;;;;;30.70;24.45;;;;;;;5.12;69.67;99330.78;4991427;28;97417;-72
2020/12/30 07:54:27;;;;;;;30.23;22.52;;;;;;;4.99;71.20;99334.75;4991201;28;97105;-73
2020/12/30 07:57:03;;;;;;;29.33;21.15;;;;;;;4.93;71.75;99342.75;4990147;28;96835;-72
2020/12/30 07:59:29;;;;;;;31.33;22.45;;;;;;;5.04;70.90;99353.50;4972277;28;98316;-73
2020/12/30 08:02:06;;;;;;;29.02;22.42;;;;;;;5.13;71.09;99357.44;4990818;28;98529;-72
2020/12/30 08:04:34;;;;;;;29.17;23.15;;;;;;;5.22;70.57;99355.31;4984524;28;96664;-73
2020/12/30 08:07:04;;;;;;;31.70;23.45;;;;;;;5.31;70.63;99340.31;4990990;28;96562;-71
2020/12/30 08:09:32;;;;;;;26.27;20.10;;;;;;;5.36;70.92;99348.72;4972184;28;98350;-71
2020/12/30 08:11:59;;;;;;;25.30;20.40;;;;;;;5.34;70.25;99350.53;4986465;28;98495;-71
2020/12/30 08:14:27;;;;;;;27.83;22.65;;;;;;;5.44;70.42;99341.47;4987299;28;96707;-71
2020/12/30 08:17:07;;;;;;;28.95;22.60;;;;;;;5.45;70.62;99344.00;4989559;28;96700;-70
2020/12/30 08:19:35;;;;;;;26.98;21.50;;;;;;;5.44;70.34;99357.00;4982621;28;97828;-71
2020/12/30 08:22:18;;;;;;;36.55;24.27;;;;;;;5.51;70.04;99351.47;4983535;28;98638;-70
2020/12/30 08:24:45;;;;;;;28.05;19.00;;;;;;;5.72;69.51;99354.03;4980924;28;100285;-70
2020/12/30 08:27:13;;;;;;;24.83;18.77;;;;;;;5.51;69.95;99359.22;4982342;28;96725;-69
2020/12/30 08:29:55;;;;;;;29.98;21.75;;;;;;;5.51;70.21;99356.66;4985192;28;98995;-69
2020/12/30 08:32:33;;;;;;;26.35;19.65;;;;;;;5.68;69.39;99363.66;4989483;28;98579;-71
2020/12/30 08:35:05;;;;;;;30.05;20.55;;;;;;;5.73;69.75;99366.88;4982586;28;97479;-70
2020/12/30 08:37:34;;;;;;;28.30;19.83;;;;;;;5.85;68.83;99380.19;4971006;28;98024;-69
2020/12/30 08:40:05;;;;;;;26.83;20.42;;;;;;;5.85;68.97;99372.41;4954770;28;97540;-69
2020/12/30 08:42:41;;;;;;;28.60;21.58;;;;;;;5.70;68.96;99374.78;4991574;28;96515;-69
2020/12/30 08:45:08;;;;;;;34.38;20.55;;;;;;;5.89;68.44;99366.22;4992566;28;96715;-70
2020/12/30 08:47:38;;;;;;;24.55;18.55;;;;;;;5.73;68.59;99372.06;4958897;28;98548;-69
2020/12/30 08:50:08;;;;;;;26.88;19.13;;;;;;;5.74;69.25;99371.16;4992706;28;98009;-69
2020/12/30 08:52:41;;;;;;;27.42;19.38;;;;;;;5.88;68.61;99374.88;4974629;28;98747;-69
2020/12/30 08:55:08;;;;;;;25.55;18.77;;;;;;;6.01;67.94;99370.84;4992705;28;96699;-69
2020/12/30 08:57:36;;;;;;;25.92;19.80;;;;;;;5.85;68.59;99368.09;4992149;28;97126;-68
2020/12/30 09:00:13;;;;;;;24.88;18.42;;;;;;;5.94;68.47;99372.88;4992885;28;98071;-69
2020/12/30 09:02:42;;;;;;;24.20;17.67;;;;;;;5.94;68.97;99378.06;4991450;28;98805;-69
2020/12/30 09:05:09;;;;;;;22.92;17.10;;;;;;;6.09;68.76;99386.06;4992065;28;96723;-68
2020/12/30 09:07:38;;;;;;;26.42;19.00;;;;;;;6.00;68.29;99400.22;4992454;28;96768;-69
2020/12/30 09:10:07;;;;;;;27.42;19.10;;;;;;;6.13;68.59;99395.34;4991818;28;97539;-69
2020/12/30 09:12:36;;;;;;;26.42;20.98;;;;;;;6.18;68.30;99409.75;4993067;28;98607;-69
2020/12/30 09:15:04;;;;;;;26.60;19.38;;;;;;;6.14;68.84;99408.22;4973777;28;97092;-69
2020/12/30 09:17:31;;;;;;;26.30;19.83;;;;;;;6.16;68.52;99410.72;4992944;28;96715;-69
2020/12/30 09:20:15;;;;;;;23.73;19.38;;;;;;;6.28;68.57;99407.56;4991811;28;98614;-69
2020/12/30 09:22:43;;;;;;;26.05;20.50;;;;;;;6.23;69.06;99412.13;4992561;28;98466;-70
2020/12/30 09:25:25;;;;;;;23.65;18.50;;;;;;;6.20;69.06;99405.34;4992532;28;96545;-69
2020/12/30 09:27:52;;;;;;;24.67;17.85;;;;;;;6.06;69.51;99402.53;4993155;28;96587;-69
2020/12/30 09:30:20;;;;;;;25.80;18.65;;;;;;;6.15;69.41;99404.72;4992488;28;98459;-68
2020/12/30 09:32:47;;;;;;;30.25;21.73;;;;;;;6.25;68.82;99411.16;4992396;28;98540;-70
2020/12/30 09:35:16;;;;;;;23.33;18.25;;;;;;;6.26;68.90;99418.00;4991330;28;97246;-69
2020/12/30 09:37:50;;;;;;;25.00;18.65;;;;;;;6.31;68.24;99417.81;4991009;28;96942;-68
2020/12/30 09:40:17;;;;;;;24.17;18.45;;;;;;;6.36;68.44;99415.00;4993043;28;98762;-70
2020/12/30 09:42:45;;;;;;;24.02;17.90;;;;;;;6.45;67.75;99417.19;4992218;28;98648;-69
2020/12/30 09:45:19;;;;;;;25.05;17.20;;;;;;;6.41;68.05;99428.56;4992539;28;96663;-70
2020/12/30 09:47:47;;;;;;;28.98;22.23;;;;;;;6.31;68.76;99425.56;4992616;28;96597;-69
2020/12/30 09:50:15;;;;;;;26.77;18.92;;;;;;;6.41;68.30;99426.00;4986693;28;98403;-70
2020/12/30 09:52:42;;;;;;;25.30;19.10;;;;;;;6.50;67.56;99423.81;4991718;28;98504;-69
2020/12/30 09:55:10;;;;;;;24.85;17.17;;;;;;;6.39;68.20;99423.47;4992150;28;97132;-70
2020/12/30 09:57:36;;;;;;;27.83;20.30;;;;;;;6.39;68.38;99427.78;4988350;28;96596;-71
2020/12/30 10:00:05;;;;;;;29.08;19.85;;;;;;;6.49;67.93;99423.88;4992038;28;98599;-71
2020/12/30 10:02:31;;;;;;;25.23;18.02;;;;;;;6.54;67.19;99424.50;4986891;28;98574;-70
2020/12/30 10:04:58;;;;;;;23.83;18.50;;;;;;;6.57;67.27;99421.78;4990202;28;97033;-69
2020/12/30 10:07:25;;;;;;;25.58;18.42;;;;;;;6.59;67.02;99419.94;4992379;28;96670;-70
2020/12/30 10:09:52;;;;;;;26.70;18.13;;;;;;;6.53;66.79;99423.66;4992401;28;98601;-70
2020/12/30 10:12:22;;;;;;;23.80;19.42;;;;;;;6.60;66.65;99419.03;4992352;28;98666;-69
2020/12/30 10:14:49;;;;;;;24.70;17.38;;;;;;;6.57;66.56;99421.78;4991765;28;96549;-70
2020/12/30 10:17:15;;;;;;;23.90;17.88;;;;;;;6.39;67.04;99425.19;4992396;28;96622;-75
2020/12/30 10:19:41;;;;;;;23.98;18.27;;;;;;;6.46;66.78;99418.84;4990756;28;98467;-74
2020/12/30 10:22:08;;;;;;;27.27;18.33;;;;;;;6.50;67.11;99425.56;4989673;28;98546;-75
2020/12/30 10:24:35;;;;;;;24.15;18.92;;;;;;;6.48;67.28;99423.03;4992223;28;96480;-74
2020/12/30 10:27:02;;;;;;;25.88;18.30;;;;;;;6.54;67.32;99421.91;4991452;28;98002;-75
2020/12/30 10:29:30;;;;;;;24.63;18.83;;;;;;;6.55;67.36;99419.28;4992087;28;98788;-75
2020/12/30 10:31:57;;;;;;;24.40;18.27;;;;;;;6.53;67.82;99420.25;4991698;28;98821;-71
2020/12/30 10:34:24;;;;;;;23.98;16.98;;;;;;;6.42;68.37;99420.72;4990677;28;97198;-72
2020/12/30 10:36:50;;;;;;;24.42;17.30;;;;;;;6.48;68.72;99423.03;4991690;28;96628;-74
2020/12/30 10:39:17;;;;;;;25.27;17.88;;;;;;;6.47;69.30;99420.53;4991994;28;98583;-72
2020/12/30 10:41:43;;;;;;;26.10;17.48;;;;;;;6.51;69.23;99416.88;4991959;28;98563;-73
2020/12/30 10:44:09;;;;;;;25.27;18.70;;;;;;;6.45;69.00;99412.00;4985889;28;96958;-72
2020/12/30 10:46:37;;;;;;;25.98;18.17;;;;;;;6.52;69.26;99413.38;4991167;28;97100;-73
2020/12/30 10:49:04;;;;;;;28.52;18.38;;;;;;;6.50;69.81;99410.03;4987601;28;98831;-73
2020/12/30 10:51:31;;;;;;;25.33;18.20;;;;;;;6.45;69.99;99406.81;4990624;28;98495;-71
2020/12/30 10:53:57;;;;;;;25.77;19.70;;;;;;;6.41;70.31;99407.88;4991310;28;98067;-70
2020/12/30 10:56:27;;;;;;;24.63;18.13;;;;;;;6.50;70.50;99410.88;4991583;28;97393;-70
2020/12/30 10:58:57;;;;;;;25.60;17.50;;;;;;;6.48;70.58;99401.47;4971784;28;97530;-72
2020/12/30 11:01:23;;;;;;;25.30;17.65;;;;;;;6.56;70.03;99401.97;4990254;28;98581;-72
2020/12/30 11:03:50;;;;;;;29.27;22.50;;;;;;;6.60;69.64;99400.06;4989324;28;96632;-67
2020/12/30 11:06:17;;;;;;;23.38;18.20;;;;;;;6.56;69.87;99404.56;4990568;28;97366;-67
2020/12/30 11:08:47;;;;;;;22.33;17.35;;;;;;;6.42;71.03;99401.78;4956164;28;98722;-70
2020/12/30 11:11:14;;;;;;;26.05;16.50;;;;;;;6.36;71.21;99399.47;4989107;28;98500;-73
2020/12/30 11:13:42;;;;;;;24.92;17.48;;;;;;;6.29;71.57;99397.16;4987553;28;97013;-70
2020/12/30 11:16:09;;;;;;;25.63;18.23;;;;;;;6.30;71.48;99396.25;4985527;28;97140;-70
2020/12/30 11:18:36;;;;;;;25.10;17.63;;;;;;;6.24;72.06;99399.13;4986497;28;98503;-71
2020/12/30 11:21:03;;;;;;;22.40;17.60;;;;;;;6.23;72.91;99396.59;4987397;28;97338;-72
2020/12/30 11:23:30;;;;;;;25.73;17.00;;;;;;;6.18;73.14;99401.13;4988443;28;98184;-71
2020/12/30 11:25:58;;;;;;;29.85;22.48;;;;;;;6.29;73.10;99392.00;4970895;28;97090;-70
2020/12/30 11:28:28;;;;;;;32.25;25.95;;;;;;;6.28;72.61;99397.22;4987852;28;98607;-70
2020/12/30 11:30:57;;;;;;;42.55;28.80;;;;;;;6.40;72.13;99395.84;4988158;28;98672;-69